sensor_id;sensor_type;location;lat;lon;timestamp;pressure;altitude;pressure_sealevel;temperature;humidity
34243;BME280;20504;43.214;27.920;2023-08-08T00:02:12;97739.94;;;25.55;100.00
34243;BME280;20504;43.214;27.920;2023-08-08T00:04:38;97719.16;;;25.71;100.00
34243;BME280;20504;43.214;27.920;2023-08-08T00:07:03;97730.94;;;25.49;100.00
34243;BME280;20504;43.214;27.920;2023-08-08T00:09:29;97707.81;;;25.36;100.00
34243;BME280;20504;43.214;27.920;2023-08-08T00:11:54;97709.19;;;25.39;100.00
34243;BME280;20504;43.214;27.920;2023-08-08T00:14:20;97711.56;;;25.30;100.00
34243;BME280;20504;43.214;27.920;2023-08-08T00:16:45;97679.94;;;25.04;100.00
34243;BME280;20504;43.214;27.920;2023-08-08T00:19:11;97699.03;;;25.24;100.00
34243;BME280;20504;43.214;27.920;2023-08-08T00:21:36;97689.94;;;25.03;100.00
34243;BME280;20504;43.214;27.920;2023-08-08T00:24:01;97712.66;;;25.29;100.00
34243;BME280;20504;43.214;27.920;2023-08-08T00:26:27;97697.84;;;25.10;100.00
34243;BME280;20504;43.214;27.920;2023-08-08T00:28:52;97729.81;;;25.03;100.00
34243;BME280;20504;43.214;27.920;2023-08-08T00:31:18;97749.59;;;25.03;100.00
34243;BME280;20504;43.214;27.920;2023-08-08T00:33:45;97715.25;;;25.14;100.00
34243;BME280;20504;43.214;27.920;2023-08-08T00:36:10;97714.31;;;25.35;100.00
34243;BME280;20504;43.214;27.920;2023-08-08T00:38:36;97701.63;;;25.09;100.00
34243;BME280;20504;43.214;27.920;2023-08-08T00:41:01;97693.28;;;25.11;100.00
34243;BME280;20504;43.214;27.920;2023-08-08T00:43:27;97706.88;;;25.21;100.00
34243;BME280;20504;43.214;27.920;2023-08-08T00:45:52;97719.81;;;25.09;100.00
34243;BME280;20504;43.214;27.920;2023-08-08T00:48:18;97751.38;;;25.25;100.00
34243;BME280;20504;43.214;27.920;2023-08-08T00:50:45;97779.00;;;25.17;100.00
34243;BME280;20504;43.214;27.920;2023-08-08T00:53:11;97775.06;;;25.02;100.00
34243;BME280;20504;43.214;27.920;2023-08-08T00:55:37;97794.25;;;25.28;100.00
34243;BME280;20504;43.214;27.920;2023-08-08T00:58:04;97807.50;;;25.24;100.00
34243;BME280;20504;43.214;27.920;2023-08-08T01:00:29;97815.34;;;25.21;100.00
34243;BME280;20504;43.214;27.920;2023-08-08T01:02:55;97829.03;;;25.04;100.00
34243;BME280;20504;43.214;27.920;2023-08-08T01:05:20;97853.09;;;25.27;100.00
34243;BME280;20504;43.214;27.920;2023-08-08T01:08:06;97821.25;;;25.13;100.00
34243;BME280;20504;43.214;27.920;2023-08-08T01:10:39;97834.34;;;25.21;100.00
34243;BME280;20504;43.214;27.920;2023-08-08T01:13:09;97836.47;;;25.14;100.00
34243;BME280;20504;43.214;27.920;2023-08-08T01:15:36;97795.00;;;24.91;100.00
34243;BME280;20504;43.214;27.920;2023-08-08T01:18:07;97850.91;;;25.24;100.00
34243;BME280;20504;43.214;27.920;2023-08-08T01:20:34;97854.09;;;25.16;100.00
34243;BME280;20504;43.214;27.920;2023-08-08T01:23:26;97847.66;;;25.27;100.00
34243;BME280;20504;43.214;27.920;2023-08-08T01:25:54;97825.88;;;24.90;100.00
34243;BME280;20504;43.214;27.920;2023-08-08T01:28:23;97826.34;;;24.82;100.00
34243;BME280;20504;43.214;27.920;2023-08-08T01:30:50;97827.84;;;24.95;100.00
34243;BME280;20504;43.214;27.920;2023-08-08T01:33:46;97812.81;;;24.82;100.00
34243;BME280;20504;43.214;27.920;2023-08-08T01:36:22;97777.72;;;24.97;100.00
34243;BME280;20504;43.214;27.920;2023-08-08T01:38:51;97747.75;;;24.82;100.00
34243;BME280;20504;43.214;27.920;2023-08-08T01:41:20;97751.84;;;24.85;100.00
34243;BME280;20504;43.214;27.920;2023-08-08T01:43:47;97742.47;;;24.97;100.00
34243;BME280;20504;43.214;27.920;2023-08-08T01:46:13;97720.53;;;24.99;100.00
34243;BME280;20504;43.214;27.920;2023-08-08T01:48:38;97721.78;;;24.86;100.00
34243;BME280;20504;43.214;27.920;2023-08-08T01:51:05;97723.13;;;24.89;100.00
34243;BME280;20504;43.214;27.920;2023-08-08T01:53:30;97704.72;;;24.91;100.00
34243;BME280;20504;43.214;27.920;2023-08-08T01:55:56;97681.25;;;25.01;100.00
34243;BME280;20504;43.214;27.920;2023-08-08T01:58:21;97683.09;;;24.96;100.00
34243;BME280;20504;43.214;27.920;2023-08-08T02:00:47;97663.41;;;24.73;100.00
34243;BME280;20504;43.214;27.920;2023-08-08T02:03:13;97635.97;;;24.65;100.00
34243;BME280;20504;43.214;27.920;2023-08-08T02:05:38;97606.84;;;24.82;100.00
34243;BME280;20504;43.214;27.920;2023-08-08T02:08:04;97591.94;;;24.85;100.00
34243;BME280;20504;43.214;27.920;2023-08-08T02:10:30;97586.25;;;24.86;100.00
34243;BME280;20504;43.214;27.920;2023-08-08T02:12:55;97574.81;;;24.74;100.00
34243;BME280;20504;43.214;27.920;2023-08-08T02:15:21;97570.28;;;24.90;100.00
34243;BME280;20504;43.214;27.920;2023-08-08T02:17:46;97558.09;;;24.87;100.00
34243;BME280;20504;43.214;27.920;2023-08-08T02:20:12;97549.38;;;24.80;100.00
34243;BME280;20504;43.214;27.920;2023-08-08T02:22:38;97542.25;;;24.69;100.00
34243;BME280;20504;43.214;27.920;2023-08-08T02:25:04;97535.44;;;24.61;100.00
34243;BME280;20504;43.214;27.920;2023-08-08T02:27:29;97487.50;;;24.62;100.00
34243;BME280;20504;43.214;27.920;2023-08-08T02:29:55;97505.94;;;24.70;100.00
34243;BME280;20504;43.214;27.920;2023-08-08T02:32:22;97484.44;;;24.53;100.00
34243;BME280;20504;43.214;27.920;2023-08-08T02:34:47;97428.19;;;24.65;100.00
34243;BME280;20504;43.214;27.920;2023-08-08T02:37:13;97458.78;;;24.61;100.00
34243;BME280;20504;43.214;27.920;2023-08-08T02:39:38;97480.50;;;24.71;100.00
34243;BME280;20504;43.214;27.920;2023-08-08T02:42:04;97478.44;;;24.41;100.00
34243;BME280;20504;43.214;27.920;2023-08-08T02:44:30;97455.28;;;24.28;100.00
34243;BME280;20504;43.214;27.920;2023-08-08T02:46:55;97438.59;;;24.36;100.00
34243;BME280;20504;43.214;27.920;2023-08-08T02:49:21;97429.19;;;24.49;100.00
34243;BME280;20504;43.214;27.920;2023-08-08T02:51:46;97405.03;;;24.37;100.00
34243;BME280;20504;43.214;27.920;2023-08-08T02:54:12;97379.19;;;24.25;100.00
34243;BME280;20504;43.214;27.920;2023-08-08T02:56:37;97359.81;;;24.38;100.00
34243;BME280;20504;43.214;27.920;2023-08-08T02:59:03;97390.97;;;24.45;100.00
34243;BME280;20504;43.214;27.920;2023-08-08T03:01:28;97374.16;;;24.38;100.00
34243;BME280;20504;43.214;27.920;2023-08-08T03:03:54;97345.78;;;24.04;100.00
34243;BME280;20504;43.214;27.920;2023-08-08T03:06:19;97322.00;;;24.11;100.00
34243;BME280;20504;43.214;27.920;2023-08-08T03:08:45;97291.28;;;23.85;100.00
34243;BME280;20504;43.214;27.920;2023-08-08T03:11:10;97297.38;;;24.12;100.00
34243;BME280;20504;43.214;27.920;2023-08-08T03:13:36;97328.63;;;24.30;100.00
34243;BME280;20504;43.214;27.920;2023-08-08T03:16:02;97301.78;;;24.24;100.00
34243;BME280;20504;43.214;27.920;2023-08-08T03:18:37;97289.97;;;24.40;100.00
34243;BME280;20504;43.214;27.920;2023-08-08T03:21:02;97293.47;;;24.40;100.00
34243;BME280;20504;43.214;27.920;2023-08-08T03:23:28;97277.50;;;24.44;100.00
34243;BME280;20504;43.214;27.920;2023-08-08T03:25:54;97307.81;;;24.41;100.00
34243;BME280;20504;43.214;27.920;2023-08-08T03:28:19;97310.28;;;24.42;100.00
34243;BME280;20504;43.214;27.920;2023-08-08T03:30:44;97301.41;;;24.62;100.00
34243;BME280;20504;43.214;27.920;2023-08-08T03:33:10;97295.66;;;24.49;100.00
34243;BME280;20504;43.214;27.920;2023-08-08T03:35:35;97297.00;;;24.41;100.00
34243;BME280;20504;43.214;27.920;2023-08-08T03:38:01;97284.19;;;24.26;100.00
34243;BME280;20504;43.214;27.920;2023-08-08T03:40:27;97280.75;;;24.46;100.00
34243;BME280;20504;43.214;27.920;2023-08-08T03:42:53;97259.28;;;24.24;100.00
34243;BME280;20504;43.214;27.920;2023-08-08T03:45:18;97209.75;;;24.29;100.00
34243;BME280;20504;43.214;27.920;2023-08-08T03:47:44;97237.66;;;24.29;100.00
34243;BME280;20504;43.214;27.920;2023-08-08T03:50:09;97244.66;;;24.25;100.00
34243;BME280;20504;43.214;27.920;2023-08-08T03:52:35;97204.13;;;24.40;100.00
34243;BME280;20504;43.214;27.920;2023-08-08T03:55:03;97252.06;;;24.50;100.00
34243;BME280;20504;43.214;27.920;2023-08-08T03:57:30;97215.22;;;24.49;100.00
34243;BME280;20504;43.214;27.920;2023-08-08T04:00:00;97210.06;;;24.42;100.00
34243;BME280;20504;43.214;27.920;2023-08-08T04:02:26;97213.66;;;24.79;100.00
34243;BME280;20504;43.214;27.920;2023-08-08T04:04:53;97227.44;;;24.57;100.00
34243;BME280;20504;43.214;27.920;2023-08-08T04:07:18;97224.44;;;24.43;100.00
34243;BME280;20504;43.214;27.920;2023-08-08T04:09:44;97225.25;;;24.54;100.00
34243;BME280;20504;43.214;27.920;2023-08-08T04:12:09;97224.50;;;24.79;100.00
34243;BME280;20504;43.214;27.920;2023-08-08T04:14:35;97238.00;;;24.58;100.00
34243;BME280;20504;43.214;27.920;2023-08-08T04:17:00;97248.84;;;24.58;100.00
34243;BME280;20504;43.214;27.920;2023-08-08T04:19:26;97246.63;;;24.50;100.00
34243;BME280;20504;43.214;27.920;2023-08-08T04:21:51;97247.44;;;24.45;100.00
34243;BME280;20504;43.214;27.920;2023-08-08T04:24:17;97260.44;;;24.38;100.00
34243;BME280;20504;43.214;27.920;2023-08-08T04:26:42;97214.81;;;24.10;100.00
34243;BME280;20504;43.214;27.920;2023-08-08T04:29:08;97214.41;;;24.54;100.00
34243;BME280;20504;43.214;27.920;2023-08-08T04:31:33;97161.34;;;24.48;100.00
34243;BME280;20504;43.214;27.920;2023-08-08T04:34:00;97207.66;;;24.66;100.00
34243;BME280;20504;43.214;27.920;2023-08-08T04:36:29;97165.13;;;24.46;100.00
34243;BME280;20504;43.214;27.920;2023-08-08T04:38:55;97190.03;;;24.54;100.00
34243;BME280;20504;43.214;27.920;2023-08-08T04:41:20;97162.16;;;24.79;100.00
34243;BME280;20504;43.214;27.920;2023-08-08T04:43:46;97178.72;;;25.02;100.00
34243;BME280;20504;43.214;27.920;2023-08-08T04:46:11;97174.63;;;24.80;100.00
34243;BME280;20504;43.214;27.920;2023-08-08T04:48:37;97222.88;;;24.93;100.00
34243;BME280;20504;43.214;27.920;2023-08-08T04:51:07;97200.34;;;24.87;100.00
34243;BME280;20504;43.214;27.920;2023-08-08T04:53:33;97204.16;;;24.66;100.00
34243;BME280;20504;43.214;27.920;2023-08-08T04:55:58;97202.81;;;24.94;100.00
34243;BME280;20504;43.214;27.920;2023-08-08T04:58:24;97158.91;;;24.66;100.00
34243;BME280;20504;43.214;27.920;2023-08-08T05:00:49;97159.19;;;24.85;100.00
34243;BME280;20504;43.214;27.920;2023-08-08T05:03:17;97144.00;;;24.89;100.00
34243;BME280;20504;43.214;27.920;2023-08-08T05:05:43;97177.31;;;24.69;100.00
34243;BME280;20504;43.214;27.920;2023-08-08T05:08:13;97168.66;;;24.67;100.00
34243;BME280;20504;43.214;27.920;2023-08-08T05:10:38;97139.41;;;24.74;100.00
34243;BME280;20504;43.214;27.920;2023-08-08T05:13:04;97150.25;;;25.05;100.00
34243;BME280;20504;43.214;27.920;2023-08-08T05:15:30;97150.78;;;25.07;100.00
34243;BME280;20504;43.214;27.920;2023-08-08T05:17:55;97152.13;;;25.15;100.00
34243;BME280;20504;43.214;27.920;2023-08-08T05:20:34;97185.75;;;24.93;100.00
34243;BME280;20504;43.214;27.920;2023-08-08T05:23:01;97167.84;;;24.82;100.00
34243;BME280;20504;43.214;27.920;2023-08-08T05:25:26;97083.81;;;25.08;100.00
34243;BME280;20504;43.214;27.920;2023-08-08T05:27:53;97101.72;;;25.14;100.00
34243;BME280;20504;43.214;27.920;2023-08-08T05:30:22;97120.69;;;24.98;100.00
34243;BME280;20504;43.214;27.920;2023-08-08T05:32:57;97144.53;;;24.71;100.00
34243;BME280;20504;43.214;27.920;2023-08-08T05:35:29;97108.75;;;24.89;100.00
34243;BME280;20504;43.214;27.920;2023-08-08T05:37:59;97143.75;;;25.01;100.00
34243;BME280;20504;43.214;27.920;2023-08-08T05:40:28;97156.75;;;24.99;100.00
34243;BME280;20504;43.214;27.920;2023-08-08T05:42:53;97144.81;;;25.20;100.00
34243;BME280;20504;43.214;27.920;2023-08-08T05:45:20;97173.81;;;25.10;100.00
34243;BME280;20504;43.214;27.920;2023-08-08T05:47:45;97186.81;;;24.77;100.00
34243;BME280;20504;43.214;27.920;2023-08-08T05:50:14;97183.81;;;24.68;100.00
34243;BME280;20504;43.214;27.920;2023-08-08T05:52:59;97174.06;;;24.67;100.00
34243;BME280;20504;43.214;27.920;2023-08-08T05:55:26;97143.72;;;24.91;100.00
34243;BME280;20504;43.214;27.920;2023-08-08T05:58:24;97141.84;;;24.86;100.00
34243;BME280;20504;43.214;27.920;2023-08-08T06:00:53;97176.78;;;24.62;100.00
34243;BME280;20504;43.214;27.920;2023-08-08T06:03:26;97119.88;;;25.18;100.00
34243;BME280;20504;43.214;27.920;2023-08-08T06:05:54;97109.56;;;25.10;100.00
34243;BME280;20504;43.214;27.920;2023-08-08T06:08:19;97126.84;;;25.45;100.00
34243;BME280;20504;43.214;27.920;2023-08-08T06:10:45;97143.41;;;25.48;100.00
34243;BME280;20504;43.214;27.920;2023-08-08T06:13:10;97200.09;;;24.99;100.00
34243;BME280;20504;43.214;27.920;2023-08-08T06:15:36;97198.78;;;25.12;100.00
34243;BME280;20504;43.214;27.920;2023-08-08T06:18:01;97188.19;;;25.30;100.00
34243;BME280;20504;43.214;27.920;2023-08-08T06:20:27;97242.94;;;24.97;100.00
34243;BME280;20504;43.214;27.920;2023-08-08T06:22:53;97199.31;;;25.03;100.00
34243;BME280;20504;43.214;27.920;2023-08-08T06:25:19;97187.34;;;25.35;100.00
34243;BME280;20504;43.214;27.920;2023-08-08T06:27:44;97146.59;;;25.55;100.00
34243;BME280;20504;43.214;27.920;2023-08-08T06:30:10;97234.53;;;25.24;100.00
34243;BME280;20504;43.214;27.920;2023-08-08T06:32:35;97250.53;;;25.10;100.00
34243;BME280;20504;43.214;27.920;2023-08-08T06:35:04;97245.91;;;24.95;100.00
34243;BME280;20504;43.214;27.920;2023-08-08T06:37:30;97243.47;;;25.09;100.00
34243;BME280;20504;43.214;27.920;2023-08-08T06:39:55;97227.19;;;24.79;100.00
34243;BME280;20504;43.214;27.920;2023-08-08T06:42:21;97246.75;;;25.06;100.00
34243;BME280;20504;43.214;27.920;2023-08-08T06:44:47;97294.72;;;25.41;100.00
34243;BME280;20504;43.214;27.920;2023-08-08T06:47:13;97291.22;;;25.15;100.00
34243;BME280;20504;43.214;27.920;2023-08-08T06:49:38;97346.53;;;25.19;100.00
34243;BME280;20504;43.214;27.920;2023-08-08T06:52:04;97347.31;;;25.10;100.00
34243;BME280;20504;43.214;27.920;2023-08-08T06:54:31;97369.84;;;25.46;100.00
34243;BME280;20504;43.214;27.920;2023-08-08T06:56:56;97431.66;;;25.28;100.00
34243;BME280;20504;43.214;27.920;2023-08-08T06:59:23;97439.81;;;25.23;100.00
34243;BME280;20504;43.214;27.920;2023-08-08T07:01:49;97479.09;;;25.11;100.00
34243;BME280;20504;43.214;27.920;2023-08-08T07:04:14;97463.94;;;25.25;100.00
34243;BME280;20504;43.214;27.920;2023-08-08T07:06:41;97468.28;;;25.26;100.00
34243;BME280;20504;43.214;27.920;2023-08-08T07:09:07;97447.03;;;24.97;100.00
34243;BME280;20504;43.214;27.920;2023-08-08T07:11:36;97424.38;;;25.29;100.00
34243;BME280;20504;43.214;27.920;2023-08-08T07:14:01;97439.53;;;25.20;100.00
34243;BME280;20504;43.214;27.920;2023-08-08T07:16:27;97474.81;;;25.35;100.00
34243;BME280;20504;43.214;27.920;2023-08-08T07:18:52;97433.09;;;25.66;100.00
34243;BME280;20504;43.214;27.920;2023-08-08T07:21:33;97481.44;;;26.00;100.00
34243;BME280;20504;43.214;27.920;2023-08-08T07:23:59;97518.13;;;26.23;100.00
34243;BME280;20504;43.214;27.920;2023-08-08T07:26:25;97586.53;;;26.10;100.00
34243;BME280;20504;43.214;27.920;2023-08-08T07:28:50;97625.31;;;25.90;100.00
34243;BME280;20504;43.214;27.920;2023-08-08T07:31:16;97624.56;;;26.15;100.00
34243;BME280;20504;43.214;27.920;2023-08-08T07:33:41;97651.75;;;26.30;100.00
34243;BME280;20504;43.214;27.920;2023-08-08T07:36:07;97681.94;;;26.49;100.00
34243;BME280;20504;43.214;27.920;2023-08-08T07:38:32;97768.47;;;26.15;100.00
34243;BME280;20504;43.214;27.920;2023-08-08T07:40:58;97777.59;;;25.88;100.00
34243;BME280;20504;43.214;27.920;2023-08-08T07:43:23;97761.41;;;26.09;100.00
34243;BME280;20504;43.214;27.920;2023-08-08T07:45:49;97822.72;;;26.00;100.00
34243;BME280;20504;43.214;27.920;2023-08-08T07:48:14;97840.25;;;25.82;100.00
34243;BME280;20504;43.214;27.920;2023-08-08T07:50:40;97869.09;;;25.88;100.00
34243;BME280;20504;43.214;27.920;2023-08-08T07:53:07;97873.47;;;25.99;100.00
34243;BME280;20504;43.214;27.920;2023-08-08T07:55:32;97896.91;;;26.10;100.00
34243;BME280;20504;43.214;27.920;2023-08-08T07:57:58;97910.25;;;26.17;100.00
34243;BME280;20504;43.214;27.920;2023-08-08T08:00:23;97952.16;;;25.89;100.00
34243;BME280;20504;43.214;27.920;2023-08-08T08:02:51;97951.41;;;25.99;100.00
34243;BME280;20504;43.214;27.920;2023-08-08T08:05:19;97931.03;;;25.96;100.00
34243;BME280;20504;43.214;27.920;2023-08-08T08:07:46;97900.44;;;26.11;100.00
34243;BME280;20504;43.214;27.920;2023-08-08T08:10:13;97933.91;;;25.84;100.00
34243;BME280;20504;43.214;27.920;2023-08-08T08:12:39;97923.69;;;25.96;100.00
34243;BME280;20504;43.214;27.920;2023-08-08T08:15:06;97940.09;;;25.75;100.00
34243;BME280;20504;43.214;27.920;2023-08-08T08:17:32;97945.25;;;26.08;100.00
34243;BME280;20504;43.214;27.920;2023-08-08T08:19:57;97879.91;;;26.25;100.00
34243;BME280;20504;43.214;27.920;2023-08-08T08:22:23;97887.84;;;26.37;100.00
34243;BME280;20504;43.214;27.920;2023-08-08T08:24:49;97927.03;;;26.51;100.00
34243;BME280;20504;43.214;27.920;2023-08-08T08:27:18;97990.81;;;26.80;100.00
34243;BME280;20504;43.214;27.920;2023-08-08T08:30:05;98009.31;;;26.89;100.00
34243;BME280;20504;43.214;27.920;2023-08-08T08:33:01;98003.91;;;26.94;100.00
34243;BME280;20504;43.214;27.920;2023-08-08T08:35:26;97985.22;;;27.12;100.00
34243;BME280;20504;43.214;27.920;2023-08-08T08:37:54;97991.94;;;26.95;100.00
34243;BME280;20504;43.214;27.920;2023-08-08T08:40:19;98013.53;;;26.59;100.00
34243;BME280;20504;43.214;27.920;2023-08-08T08:42:47;97970.63;;;26.71;100.00
34243;BME280;20504;43.214;27.920;2023-08-08T08:45:22;97946.19;;;26.76;100.00
34243;BME280;20504;43.214;27.920;2023-08-08T08:47:47;97944.81;;;26.74;100.00
34243;BME280;20504;43.214;27.920;2023-08-08T08:50:15;97918.34;;;26.49;100.00
34243;BME280;20504;43.214;27.920;2023-08-08T08:52:42;97875.63;;;26.39;100.00
34243;BME280;20504;43.214;27.920;2023-08-08T08:55:09;97835.53;;;26.67;100.00
34243;BME280;20504;43.214;27.920;2023-08-08T08:57:38;97848.72;;;26.38;100.00
34243;BME280;20504;43.214;27.920;2023-08-08T09:00:05;97846.41;;;26.72;100.00
34243;BME280;20504;43.214;27.920;2023-08-08T09:02:32;97865.91;;;26.59;100.00
34243;BME280;20504;43.214;27.920;2023-08-08T09:04:59;97897.78;;;26.73;100.00
34243;BME280;20504;43.214;27.920;2023-08-08T09:07:32;97952.19;;;26.31;100.00
34243;BME280;20504;43.214;27.920;2023-08-08T09:10:21;97919.69;;;26.41;100.00
34243;BME280;20504;43.214;27.920;2023-08-08T09:12:47;97941.47;;;26.14;100.00
34243;BME280;20504;43.214;27.920;2023-08-08T09:15:14;97910.72;;;26.41;100.00
34243;BME280;20504;43.214;27.920;2023-08-08T09:17:43;97929.16;;;26.39;100.00
34243;BME280;20504;43.214;27.920;2023-08-08T09:20:11;97942.31;;;26.20;100.00
34243;BME280;20504;43.214;27.920;2023-08-08T09:22:41;97970.94;;;26.33;100.00
34243;BME280;20504;43.214;27.920;2023-08-08T09:25:09;97951.41;;;25.99;100.00
34243;BME280;20504;43.214;27.920;2023-08-08T09:27:41;97897.44;;;26.07;100.00
34243;BME280;20504;43.214;27.920;2023-08-08T09:30:08;97899.81;;;25.99;100.00
34243;BME280;20504;43.214;27.920;2023-08-08T09:32:46;97866.66;;;25.91;100.00
34243;BME280;20504;43.214;27.920;2023-08-08T09:35:16;97828.31;;;25.83;100.00
34243;BME280;20504;43.214;27.920;2023-08-08T09:37:47;97817.97;;;25.80;100.00
34243;BME280;20504;43.214;27.920;2023-08-08T09:40:18;97800.22;;;26.04;100.00
34243;BME280;20504;43.214;27.920;2023-08-08T09:42:44;97814.78;;;25.88;100.00
34243;BME280;20504;43.214;27.920;2023-08-08T09:45:13;97828.78;;;25.70;100.00
34243;BME280;20504;43.214;27.920;2023-08-08T09:47:45;97819.72;;;25.59;100.00
34243;BME280;20504;43.214;27.920;2023-08-08T09:50:11;97841.03;;;25.45;100.00
34243;BME280;20504;43.214;27.920;2023-08-08T09:52:37;97794.16;;;25.13;100.00
34243;BME280;20504;43.214;27.920;2023-08-08T09:55:06;97775.31;;;25.33;100.00
34243;BME280;20504;43.214;27.920;2023-08-08T09:57:32;97782.13;;;25.03;100.00
34243;BME280;20504;43.214;27.920;2023-08-08T09:59:58;97781.84;;;25.00;100.00
34243;BME280;20504;43.214;27.920;2023-08-08T10:02:24;97743.94;;;24.78;100.00
34243;BME280;20504;43.214;27.920;2023-08-08T10:04:50;97737.63;;;24.99;100.00
34243;BME280;20504;43.214;27.920;2023-08-08T10:07:17;97778.97;;;24.90;100.00
34243;BME280;20504;43.214;27.920;2023-08-08T10:09:43;97784.22;;;24.69;100.00
34243;BME280;20504;43.214;27.920;2023-08-08T10:12:09;97782.84;;;24.67;100.00
34243;BME280;20504;43.214;27.920;2023-08-08T10:14:37;97774.38;;;24.90;100.00
34243;BME280;20504;43.214;27.920;2023-08-08T10:17:05;97744.91;;;24.67;100.00
34243;BME280;20504;43.214;27.920;2023-08-08T10:19:32;97703.47;;;24.71;100.00
34243;BME280;20504;43.214;27.920;2023-08-08T10:22:04;97717.00;;;24.98;100.00
34243;BME280;20504;43.214;27.920;2023-08-08T10:24:34;97716.38;;;25.23;100.00
34243;BME280;20504;43.214;27.920;2023-08-08T10:27:04;97754.75;;;25.05;100.00
34243;BME280;20504;43.214;27.920;2023-08-08T10:29:32;97694.63;;;24.49;100.00
34243;BME280;20504;43.214;27.920;2023-08-08T10:32:03;97710.72;;;24.93;100.00
34243;BME280;20504;43.214;27.920;2023-08-08T10:34:43;97735.19;;;24.71;100.00
34243;BME280;20504;43.214;27.920;2023-08-08T10:37:54;97725.59;;;24.58;100.00
34243;BME280;20504;43.214;27.920;2023-08-08T10:40:20;97679.31;;;24.11;100.00
34243;BME280;20504;43.214;27.920;2023-08-08T10:42:49;97698.97;;;24.28;100.00
34243;BME280;20504;43.214;27.920;2023-08-08T10:45:20;97679.81;;;24.30;100.00
34243;BME280;20504;43.214;27.920;2023-08-08T10:47:45;97640.63;;;24.15;100.00
34243;BME280;20504;43.214;27.920;2023-08-08T10:50:13;97595.50;;;24.21;100.00
34243;BME280;20504;43.214;27.920;2023-08-08T10:55:24;97519.91;;;23.82;100.00
34243;BME280;20504;43.214;27.920;2023-08-08T10:57:58;97433.50;;;23.71;100.00
34243;BME280;20504;43.214;27.920;2023-08-08T11:00:28;97375.69;;;23.82;100.00
34243;BME280;20504;43.214;27.920;2023-08-08T11:02:54;97392.94;;;23.76;100.00
34243;BME280;20504;43.214;27.920;2023-08-08T11:05:22;97397.00;;;23.78;100.00
34243;BME280;20504;43.214;27.920;2023-08-08T11:07:48;97421.13;;;23.53;100.00
34243;BME280;20504;43.214;27.920;2023-08-08T11:10:14;97333.13;;;23.40;100.00
34243;BME280;20504;43.214;27.920;2023-08-08T11:12:40;97342.91;;;23.14;100.00
34243;BME280;20504;43.214;27.920;2023-08-08T11:15:06;97313.50;;;22.91;100.00
34243;BME280;20504;43.214;27.920;2023-08-08T11:17:32;97208.25;;;22.74;100.00
34243;BME280;20504;43.214;27.920;2023-08-08T11:19:58;97125.44;;;22.53;100.00
34243;BME280;20504;43.214;27.920;2023-08-08T11:22:23;96990.91;;;22.45;100.00
34243;BME280;20504;43.214;27.920;2023-08-08T11:24:49;97129.88;;;22.37;100.00
34243;BME280;20504;43.214;27.920;2023-08-08T11:27:19;97031.09;;;22.36;100.00
34243;BME280;20504;43.214;27.920;2023-08-08T11:29:50;96846.94;;;22.24;100.00
34243;BME280;20504;43.214;27.920;2023-08-08T11:32:16;96772.81;;;22.42;100.00
34243;BME280;20504;43.214;27.920;2023-08-08T11:34:42;96753.72;;;22.74;100.00
34243;BME280;20504;43.214;27.920;2023-08-08T11:37:08;96702.19;;;22.95;100.00
34243;BME280;20504;43.214;27.920;2023-08-08T11:39:36;96681.31;;;23.37;100.00
34243;BME280;20504;43.214;27.920;2023-08-08T11:42:02;96632.34;;;23.53;100.00
34243;BME280;20504;43.214;27.920;2023-08-08T11:44:28;96587.38;;;23.78;100.00
34243;BME280;20504;43.214;27.920;2023-08-08T11:46:53;96600.91;;;23.78;100.00
34243;BME280;20504;43.214;27.920;2023-08-08T11:49:19;96586.00;;;23.85;100.00
34243;BME280;20504;43.214;27.920;2023-08-08T11:51:45;96517.00;;;24.27;100.00
34243;BME280;20504;43.214;27.920;2023-08-08T11:54:11;96452.59;;;25.06;100.00
34243;BME280;20504;43.214;27.920;2023-08-08T11:56:37;96516.56;;;25.74;100.00
34243;BME280;20504;43.214;27.920;2023-08-08T11:59:06;96572.75;;;26.95;100.00
34243;BME280;20504;43.214;27.920;2023-08-08T12:01:42;96882.63;;;28.21;100.00
34243;BME280;20504;43.214;27.920;2023-08-08T12:04:09;97115.47;;;29.27;100.00
34243;BME280;20504;43.214;27.920;2023-08-08T12:06:37;97364.63;;;30.80;100.00
34243;BME280;20504;43.214;27.920;2023-08-08T12:09:19;97687.56;;;30.69;100.00
34243;BME280;20504;43.214;27.920;2023-08-08T12:11:45;97937.59;;;31.49;100.00
34243;BME280;20504;43.214;27.920;2023-08-08T12:14:11;98225.19;;;32.91;100.00
34243;BME280;20504;43.214;27.920;2023-08-08T12:16:42;98499.22;;;33.26;100.00
34243;BME280;20504;43.214;27.920;2023-08-08T12:19:08;98667.47;;;33.61;100.00
34243;BME280;20504;43.214;27.920;2023-08-08T12:21:36;99135.91;;;34.91;100.00
34243;BME280;20504;43.214;27.920;2023-08-08T12:24:01;99719.81;;;35.01;100.00
34243;BME280;20504;43.214;27.920;2023-08-08T12:26:28;100031.38;;;34.37;100.00
34243;BME280;20504;43.214;27.920;2023-08-08T12:28:53;100127.25;;;34.50;100.00
34243;BME280;20504;43.214;27.920;2023-08-08T12:31:20;100301.31;;;34.30;100.00
34243;BME280;20504;43.214;27.920;2023-08-08T12:33:45;100534.31;;;35.12;100.00
34243;BME280;20504;43.214;27.920;2023-08-08T12:36:11;100875.44;;;35.61;100.00
34243;BME280;20504;43.214;27.920;2023-08-08T12:38:37;100918.94;;;35.03;100.00
34243;BME280;20504;43.214;27.920;2023-08-08T12:41:02;100993.03;;;35.50;100.00
34243;BME280;20504;43.214;27.920;2023-08-08T12:43:28;101048.81;;;35.52;100.00
34243;BME280;20504;43.214;27.920;2023-08-08T12:45:54;101226.63;;;36.62;100.00